サイパン島 の空港の天気 - METARとTAF

サイパン国際空港 ( PGSN / SPN ) - 北マリアナ諸島 サイパン島
飛行場実況気象(Metar)
観測時間02/22 16:54 ChST (02/22 06:54 UTC)
風向・風速東北東 11m/s 瞬間風速14m/s
視程10km以上
天気現象
全天の4割程度の雲 雲底高度 700m
全天の4割程度の雲 雲底高度 910m
気温28.3℃
湿度67%
気圧1017.9hPa
METARPGSN 220654Z 07022G28KT 10SM SCT023 SCT030 28/22 A3000 RMK AO2 PK WND 06028/0643 SLP179 T02830217
過去の天気等 Google飛行場航空写真 Wunderground天気予報

過去48時間のMETAR

飛行場予報(TAF)
発表時間: 2/22 09:25 ChST (2/21 23:25 UTC)
予報対象時間: 22日9時 ChST ~ 23日10時 ChST
風向・風速東 9m/s 瞬間風速 14m/s
視程10km以上
少しの雲 雲底高度 760m
全天の4割程度の雲 雲底高度 1830m
22日19時 ChST から
風向・風速東 8m/s
視程10km以上
天気現象周辺でしゅう雨
全天の4割程度の雲 雲底高度 610m
全天の4割程度の雲 雲底高度 1520m
23日9時 ChST から
風向・風速東北東 8m/s 瞬間風速 14m/s
視程10km以上
天気現象周辺でしゅう雨
全天の4割程度の雲 雲底高度 760m
全天の4割程度の雲 雲底高度 1830m
TAF COR PGSN 212325Z 2123/2224 08018G28KT P6SM FEW025 SCT060
FM220900 08016KT P6SM VCSH SCT020 SCT050
FM222300 07016G27KT P6SM VCSH SCT025 SCT060